sensor_id;sensor_type;location;lat;lon;timestamp;P1;durP1;ratioP1;P2;durP2;ratioP2
34134;SDS011;20410;55.578;12.968;2022-12-07T00:02:17;8.70;;;6.30;;
34134;SDS011;20410;55.578;12.968;2022-12-07T00:04:43;11.17;;;7.93;;
34134;SDS011;20410;55.578;12.968;2022-12-07T00:07:08;9.00;;;7.10;;
34134;SDS011;20410;55.578;12.968;2022-12-07T00:09:34;9.23;;;7.80;;
34134;SDS011;20410;55.578;12.968;2022-12-07T00:12:00;9.93;;;8.30;;
34134;SDS011;20410;55.578;12.968;2022-12-07T00:14:25;10.40;;;8.30;;
34134;SDS011;20410;55.578;12.968;2022-12-07T00:16:51;9.07;;;7.57;;
34134;SDS011;20410;55.578;12.968;2022-12-07T00:19:17;12.17;;;7.73;;
34134;SDS011;20410;55.578;12.968;2022-12-07T00:21:43;10.03;;;8.80;;
34134;SDS011;20410;55.578;12.968;2022-12-07T00:24:09;10.10;;;9.00;;
34134;SDS011;20410;55.578;12.968;2022-12-07T00:26:36;12.07;;;8.70;;
34134;SDS011;20410;55.578;12.968;2022-12-07T00:29:04;10.37;;;8.03;;
34134;SDS011;20410;55.578;12.968;2022-12-07T00:31:40;9.47;;;8.20;;
34134;SDS011;20410;55.578;12.968;2022-12-07T00:34:06;11.07;;;8.97;;
34134;SDS011;20410;55.578;12.968;2022-12-07T00:36:36;9.63;;;8.63;;
34134;SDS011;20410;55.578;12.968;2022-12-07T00:39:02;10.73;;;8.83;;
34134;SDS011;20410;55.578;12.968;2022-12-07T00:41:28;11.47;;;9.87;;
34134;SDS011;20410;55.578;12.968;2022-12-07T00:43:55;10.83;;;9.53;;
34134;SDS011;20410;55.578;12.968;2022-12-07T00:46:21;10.07;;;9.03;;
34134;SDS011;20410;55.578;12.968;2022-12-07T00:48:47;10.73;;;9.63;;
34134;SDS011;20410;55.578;12.968;2022-12-07T00:51:14;11.43;;;9.60;;
34134;SDS011;20410;55.578;12.968;2022-12-07T00:53:41;13.07;;;9.90;;
34134;SDS011;20410;55.578;12.968;2022-12-07T00:56:08;12.17;;;10.40;;
34134;SDS011;20410;55.578;12.968;2022-12-07T00:58:36;13.30;;;10.37;;
34134;SDS011;20410;55.578;12.968;2022-12-07T01:01:02;10.43;;;9.33;;
34134;SDS011;20410;55.578;12.968;2022-12-07T01:03:30;13.10;;;9.43;;
34134;SDS011;20410;55.578;12.968;2022-12-07T01:05:56;11.63;;;10.13;;
34134;SDS011;20410;55.578;12.968;2022-12-07T01:08:23;10.63;;;9.50;;
34134;SDS011;20410;55.578;12.968;2022-12-07T01:10:56;10.60;;;9.57;;
34134;SDS011;20410;55.578;12.968;2022-12-07T01:13:24;10.47;;;9.37;;
34134;SDS011;20410;55.578;12.968;2022-12-07T01:15:49;11.73;;;10.07;;
34134;SDS011;20410;55.578;12.968;2022-12-07T01:18:15;11.73;;;9.83;;
34134;SDS011;20410;55.578;12.968;2022-12-07T01:20:41;10.13;;;9.03;;
34134;SDS011;20410;55.578;12.968;2022-12-07T01:23:06;12.40;;;10.10;;
34134;SDS011;20410;55.578;12.968;2022-12-07T01:25:32;10.37;;;8.90;;
34134;SDS011;20410;55.578;12.968;2022-12-07T01:27:58;11.70;;;9.77;;
34134;SDS011;20410;55.578;12.968;2022-12-07T01:30:23;10.43;;;8.60;;
34134;SDS011;20410;55.578;12.968;2022-12-07T01:32:49;11.17;;;8.30;;
34134;SDS011;20410;55.578;12.968;2022-12-07T01:35:15;9.60;;;8.27;;
34134;SDS011;20410;55.578;12.968;2022-12-07T01:37:40;10.70;;;8.60;;
34134;SDS011;20410;55.578;12.968;2022-12-07T01:40:07;11.00;;;8.80;;
34134;SDS011;20410;55.578;12.968;2022-12-07T01:42:33;8.67;;;7.77;;
34134;SDS011;20410;55.578;12.968;2022-12-07T01:47:44;9.50;;;7.80;;
34134;SDS011;20410;55.578;12.968;2022-12-07T01:50:14;11.20;;;8.27;;
34134;SDS011;20410;55.578;12.968;2022-12-07T01:52:40;11.30;;;8.10;;
34134;SDS011;20410;55.578;12.968;2022-12-07T01:55:08;9.10;;;8.20;;
34134;SDS011;20410;55.578;12.968;2022-12-07T01:57:38;10.67;;;8.50;;
34134;SDS011;20410;55.578;12.968;2022-12-07T02:00:07;9.77;;;7.73;;
34134;SDS011;20410;55.578;12.968;2022-12-07T02:02:34;10.70;;;8.67;;
34134;SDS011;20410;55.578;12.968;2022-12-07T02:05:27;8.43;;;7.00;;
34134;SDS011;20410;55.578;12.968;2022-12-07T02:07:54;8.73;;;7.57;;
34134;SDS011;20410;55.578;12.968;2022-12-07T02:12:54;8.57;;;7.60;;
34134;SDS011;20410;55.578;12.968;2022-12-07T02:18:22;10.83;;;8.27;;
34134;SDS011;20410;55.578;12.968;2022-12-07T02:38:11;8.10;;;6.30;;
34134;SDS011;20410;55.578;12.968;2022-12-07T02:43:19;7.33;;;6.33;;
34134;SDS011;20410;55.578;12.968;2022-12-07T02:45:50;11.23;;;5.90;;
34134;SDS011;20410;55.578;12.968;2022-12-07T02:48:18;6.37;;;5.40;;
34134;SDS011;20410;55.578;12.968;2022-12-07T02:50:48;7.93;;;6.13;;
34134;SDS011;20410;55.578;12.968;2022-12-07T02:53:28;8.13;;;6.57;;
34134;SDS011;20410;55.578;12.968;2022-12-07T02:55:58;7.77;;;6.40;;
34134;SDS011;20410;55.578;12.968;2022-12-07T03:01:28;10.47;;;6.03;;
34134;SDS011;20410;55.578;12.968;2022-12-07T03:06:55;7.90;;;5.97;;
34134;SDS011;20410;55.578;12.968;2022-12-07T03:12:16;10.00;;;5.50;;
34134;SDS011;20410;55.578;12.968;2022-12-07T03:14:50;8.77;;;6.20;;
34134;SDS011;20410;55.578;12.968;2022-12-07T03:17:26;11.73;;;6.00;;
34134;SDS011;20410;55.578;12.968;2022-12-07T03:19:56;11.40;;;6.07;;
34134;SDS011;20410;55.578;12.968;2022-12-07T03:22:25;9.17;;;5.50;;
34134;SDS011;20410;55.578;12.968;2022-12-07T03:24:57;8.10;;;5.90;;
34134;SDS011;20410;55.578;12.968;2022-12-07T03:27:26;39.07;;;23.57;;
34134;SDS011;20410;55.578;12.968;2022-12-07T03:30:12;106.00;;;51.77;;
34134;SDS011;20410;55.578;12.968;2022-12-07T03:32:48;24.00;;;13.33;;
34134;SDS011;20410;55.578;12.968;2022-12-07T03:35:25;9.07;;;5.70;;
34134;SDS011;20410;55.578;12.968;2022-12-07T03:37:54;9.80;;;5.10;;
34134;SDS011;20410;55.578;12.968;2022-12-07T03:42:53;8.10;;;4.80;;
34134;SDS011;20410;55.578;12.968;2022-12-07T03:45:20;7.20;;;5.17;;
34134;SDS011;20410;55.578;12.968;2022-12-07T03:50:32;8.93;;;5.20;;
34134;SDS011;20410;55.578;12.968;2022-12-07T03:53:24;9.27;;;4.87;;
34134;SDS011;20410;55.578;12.968;2022-12-07T03:55:58;8.07;;;4.63;;
34134;SDS011;20410;55.578;12.968;2022-12-07T03:58:26;9.47;;;4.87;;
34134;SDS011;20410;55.578;12.968;2022-12-07T04:00:52;5.80;;;4.37;;
34134;SDS011;20410;55.578;12.968;2022-12-07T04:03:18;8.43;;;5.33;;
34134;SDS011;20410;55.578;12.968;2022-12-07T04:05:43;8.43;;;5.60;;
34134;SDS011;20410;55.578;12.968;2022-12-07T04:08:10;8.60;;;5.33;;
34134;SDS011;20410;55.578;12.968;2022-12-07T04:10:35;6.43;;;5.57;;
34134;SDS011;20410;55.578;12.968;2022-12-07T04:13:01;12.03;;;6.63;;
34134;SDS011;20410;55.578;12.968;2022-12-07T04:15:26;8.93;;;5.77;;
34134;SDS011;20410;55.578;12.968;2022-12-07T04:17:52;9.03;;;6.03;;
34134;SDS011;20410;55.578;12.968;2022-12-07T04:20:19;7.83;;;5.73;;
34134;SDS011;20410;55.578;12.968;2022-12-07T04:22:45;10.03;;;5.87;;
34134;SDS011;20410;55.578;12.968;2022-12-07T04:25:11;13.80;;;6.40;;
34134;SDS011;20410;55.578;12.968;2022-12-07T04:27:37;9.33;;;6.43;;
34134;SDS011;20410;55.578;12.968;2022-12-07T04:30:03;8.57;;;6.07;;
34134;SDS011;20410;55.578;12.968;2022-12-07T04:32:29;8.27;;;5.93;;
34134;SDS011;20410;55.578;12.968;2022-12-07T04:34:55;9.93;;;6.47;;
34134;SDS011;20410;55.578;12.968;2022-12-07T04:37:21;10.43;;;6.17;;
34134;SDS011;20410;55.578;12.968;2022-12-07T04:39:47;9.60;;;6.70;;
34134;SDS011;20410;55.578;12.968;2022-12-07T04:42:12;11.77;;;7.10;;
34134;SDS011;20410;55.578;12.968;2022-12-07T04:44:38;10.47;;;6.53;;
34134;SDS011;20410;55.578;12.968;2022-12-07T04:47:04;9.13;;;7.10;;
34134;SDS011;20410;55.578;12.968;2022-12-07T04:49:30;9.47;;;6.37;;
34134;SDS011;20410;55.578;12.968;2022-12-07T04:51:55;7.83;;;6.07;;
34134;SDS011;20410;55.578;12.968;2022-12-07T04:54:21;10.57;;;6.70;;
34134;SDS011;20410;55.578;12.968;2022-12-07T04:56:47;11.13;;;6.97;;
34134;SDS011;20410;55.578;12.968;2022-12-07T04:59:13;10.37;;;7.10;;
34134;SDS011;20410;55.578;12.968;2022-12-07T05:01:40;16.20;;;9.73;;
34134;SDS011;20410;55.578;12.968;2022-12-07T05:04:06;18.60;;;12.97;;
34134;SDS011;20410;55.578;12.968;2022-12-07T05:06:32;10.43;;;8.10;;
34134;SDS011;20410;55.578;12.968;2022-12-07T05:08:58;13.33;;;7.97;;
34134;SDS011;20410;55.578;12.968;2022-12-07T05:11:24;10.13;;;7.70;;
34134;SDS011;20410;55.578;12.968;2022-12-07T05:16:41;10.50;;;8.10;;
34134;SDS011;20410;55.578;12.968;2022-12-07T05:19:08;9.10;;;7.77;;
34134;SDS011;20410;55.578;12.968;2022-12-07T05:21:34;10.97;;;8.53;;
34134;SDS011;20410;55.578;12.968;2022-12-07T05:24:00;9.03;;;7.50;;
34134;SDS011;20410;55.578;12.968;2022-12-07T05:26:26;12.10;;;8.10;;
34134;SDS011;20410;55.578;12.968;2022-12-07T05:28:53;9.57;;;7.30;;
34134;SDS011;20410;55.578;12.968;2022-12-07T05:31:19;9.73;;;8.17;;
34134;SDS011;20410;55.578;12.968;2022-12-07T05:33:46;10.20;;;8.10;;
34134;SDS011;20410;55.578;12.968;2022-12-07T05:36:11;12.77;;;8.50;;
34134;SDS011;20410;55.578;12.968;2022-12-07T05:38:37;11.67;;;7.93;;
34134;SDS011;20410;55.578;12.968;2022-12-07T05:41:03;12.33;;;7.97;;
34134;SDS011;20410;55.578;12.968;2022-12-07T05:43:30;9.80;;;7.33;;
34134;SDS011;20410;55.578;12.968;2022-12-07T05:45:56;13.93;;;8.03;;
34134;SDS011;20410;55.578;12.968;2022-12-07T05:48:22;16.83;;;8.50;;
34134;SDS011;20410;55.578;12.968;2022-12-07T05:50:49;11.07;;;7.70;;
34134;SDS011;20410;55.578;12.968;2022-12-07T05:53:14;11.60;;;9.00;;
34134;SDS011;20410;55.578;12.968;2022-12-07T05:55:40;14.13;;;8.73;;
34134;SDS011;20410;55.578;12.968;2022-12-07T05:58:06;15.10;;;8.37;;
34134;SDS011;20410;55.578;12.968;2022-12-07T06:00:50;18.37;;;9.60;;
34134;SDS011;20410;55.578;12.968;2022-12-07T06:03:16;11.60;;;8.80;;
34134;SDS011;20410;55.578;12.968;2022-12-07T06:05:42;12.00;;;9.23;;
34134;SDS011;20410;55.578;12.968;2022-12-07T06:08:07;12.20;;;8.93;;
34134;SDS011;20410;55.578;12.968;2022-12-07T06:10:33;12.93;;;9.97;;
34134;SDS011;20410;55.578;12.968;2022-12-07T06:12:59;14.97;;;9.90;;
34134;SDS011;20410;55.578;12.968;2022-12-07T06:15:24;17.10;;;10.00;;
34134;SDS011;20410;55.578;12.968;2022-12-07T06:17:50;14.93;;;10.90;;
34134;SDS011;20410;55.578;12.968;2022-12-07T06:20:16;18.47;;;12.87;;
34134;SDS011;20410;55.578;12.968;2022-12-07T06:22:41;18.53;;;13.80;;
34134;SDS011;20410;55.578;12.968;2022-12-07T06:25:07;19.13;;;14.17;;
34134;SDS011;20410;55.578;12.968;2022-12-07T06:27:33;17.77;;;13.37;;
34134;SDS011;20410;55.578;12.968;2022-12-07T06:30:00;18.03;;;13.70;;
34134;SDS011;20410;55.578;12.968;2022-12-07T06:32:31;16.63;;;13.10;;
34134;SDS011;20410;55.578;12.968;2022-12-07T06:34:57;15.47;;;12.03;;
34134;SDS011;20410;55.578;12.968;2022-12-07T06:37:23;13.73;;;11.83;;
34134;SDS011;20410;55.578;12.968;2022-12-07T06:39:48;18.30;;;13.10;;
34134;SDS011;20410;55.578;12.968;2022-12-07T06:42:14;15.23;;;11.50;;
34134;SDS011;20410;55.578;12.968;2022-12-07T06:44:40;16.27;;;12.23;;
34134;SDS011;20410;55.578;12.968;2022-12-07T06:47:05;17.20;;;11.80;;
34134;SDS011;20410;55.578;12.968;2022-12-07T06:49:32;16.70;;;12.10;;
34134;SDS011;20410;55.578;12.968;2022-12-07T06:51:58;16.13;;;11.37;;
34134;SDS011;20410;55.578;12.968;2022-12-07T06:54:24;14.33;;;11.90;;
34134;SDS011;20410;55.578;12.968;2022-12-07T06:56:50;15.30;;;10.77;;
34134;SDS011;20410;55.578;12.968;2022-12-07T06:59:15;17.23;;;11.87;;
34134;SDS011;20410;55.578;12.968;2022-12-07T07:01:41;15.27;;;11.37;;
34134;SDS011;20410;55.578;12.968;2022-12-07T07:04:07;17.50;;;11.17;;
34134;SDS011;20410;55.578;12.968;2022-12-07T07:06:32;16.53;;;11.73;;
34134;SDS011;20410;55.578;12.968;2022-12-07T07:08:58;17.13;;;12.10;;
34134;SDS011;20410;55.578;12.968;2022-12-07T07:11:24;13.87;;;10.73;;
34134;SDS011;20410;55.578;12.968;2022-12-07T07:13:49;15.77;;;11.93;;
34134;SDS011;20410;55.578;12.968;2022-12-07T07:16:15;14.50;;;10.80;;
34134;SDS011;20410;55.578;12.968;2022-12-07T07:18:41;15.13;;;10.67;;
34134;SDS011;20410;55.578;12.968;2022-12-07T07:21:06;15.50;;;11.03;;
34134;SDS011;20410;55.578;12.968;2022-12-07T07:23:32;13.97;;;10.57;;
34134;SDS011;20410;55.578;12.968;2022-12-07T07:25:58;16.47;;;10.87;;
34134;SDS011;20410;55.578;12.968;2022-12-07T07:28:23;13.37;;;10.17;;
34134;SDS011;20410;55.578;12.968;2022-12-07T07:30:49;15.43;;;10.80;;
34134;SDS011;20410;55.578;12.968;2022-12-07T07:33:15;17.03;;;10.90;;
34134;SDS011;20410;55.578;12.968;2022-12-07T07:35:40;17.47;;;11.67;;
34134;SDS011;20410;55.578;12.968;2022-12-07T07:38:06;18.23;;;10.83;;
34134;SDS011;20410;55.578;12.968;2022-12-07T07:40:32;17.47;;;11.13;;
34134;SDS011;20410;55.578;12.968;2022-12-07T07:42:58;14.80;;;11.93;;
34134;SDS011;20410;55.578;12.968;2022-12-07T07:45:24;15.43;;;11.10;;
34134;SDS011;20410;55.578;12.968;2022-12-07T07:47:51;17.27;;;11.33;;
34134;SDS011;20410;55.578;12.968;2022-12-07T07:50:17;17.13;;;11.57;;
34134;SDS011;20410;55.578;12.968;2022-12-07T07:52:43;14.47;;;10.50;;
34134;SDS011;20410;55.578;12.968;2022-12-07T07:55:09;13.97;;;10.93;;
34134;SDS011;20410;55.578;12.968;2022-12-07T07:57:35;12.33;;;9.67;;
34134;SDS011;20410;55.578;12.968;2022-12-07T08:00:03;11.57;;;10.03;;
34134;SDS011;20410;55.578;12.968;2022-12-07T08:02:31;16.20;;;11.63;;
34134;SDS011;20410;55.578;12.968;2022-12-07T08:04:56;18.43;;;11.00;;
34134;SDS011;20410;55.578;12.968;2022-12-07T08:07:22;16.60;;;10.70;;
34134;SDS011;20410;55.578;12.968;2022-12-07T08:09:47;13.13;;;10.40;;
34134;SDS011;20410;55.578;12.968;2022-12-07T08:12:13;18.13;;;10.90;;
34134;SDS011;20410;55.578;12.968;2022-12-07T08:14:39;12.43;;;10.23;;
34134;SDS011;20410;55.578;12.968;2022-12-07T08:17:04;13.97;;;11.27;;
34134;SDS011;20410;55.578;12.968;2022-12-07T08:19:30;15.53;;;11.40;;
34134;SDS011;20410;55.578;12.968;2022-12-07T08:21:56;16.07;;;13.20;;
34134;SDS011;20410;55.578;12.968;2022-12-07T08:24:22;24.20;;;16.63;;
34134;SDS011;20410;55.578;12.968;2022-12-07T08:26:48;17.70;;;13.10;;
34134;SDS011;20410;55.578;12.968;2022-12-07T08:29:14;18.83;;;13.97;;
34134;SDS011;20410;55.578;12.968;2022-12-07T08:31:40;24.67;;;16.80;;
34134;SDS011;20410;55.578;12.968;2022-12-07T08:34:06;23.60;;;16.53;;
34134;SDS011;20410;55.578;12.968;2022-12-07T08:36:32;19.70;;;13.90;;
34134;SDS011;20410;55.578;12.968;2022-12-07T08:38:57;19.67;;;12.63;;
34134;SDS011;20410;55.578;12.968;2022-12-07T08:41:23;20.43;;;14.13;;
34134;SDS011;20410;55.578;12.968;2022-12-07T08:43:49;18.50;;;13.60;;
34134;SDS011;20410;55.578;12.968;2022-12-07T08:49:09;20.20;;;15.80;;
34134;SDS011;20410;55.578;12.968;2022-12-07T08:51:38;17.17;;;13.90;;
34134;SDS011;20410;55.578;12.968;2022-12-07T08:54:06;17.30;;;13.67;;
34134;SDS011;20410;55.578;12.968;2022-12-07T08:56:34;19.60;;;13.97;;
34134;SDS011;20410;55.578;12.968;2022-12-07T08:59:00;18.27;;;13.53;;
34134;SDS011;20410;55.578;12.968;2022-12-07T09:01:25;20.03;;;13.97;;
34134;SDS011;20410;55.578;12.968;2022-12-07T09:03:52;19.43;;;14.00;;
34134;SDS011;20410;55.578;12.968;2022-12-07T09:06:17;19.83;;;15.00;;
34134;SDS011;20410;55.578;12.968;2022-12-07T09:08:45;22.83;;;15.30;;
34134;SDS011;20410;55.578;12.968;2022-12-07T09:11:12;22.87;;;16.33;;
34134;SDS011;20410;55.578;12.968;2022-12-07T09:13:38;24.03;;;16.97;;
34134;SDS011;20410;55.578;12.968;2022-12-07T09:16:03;25.93;;;17.10;;
34134;SDS011;20410;55.578;12.968;2022-12-07T09:18:29;23.07;;;17.53;;
34134;SDS011;20410;55.578;12.968;2022-12-07T09:20:56;21.70;;;16.60;;
34134;SDS011;20410;55.578;12.968;2022-12-07T09:23:21;21.47;;;14.60;;
34134;SDS011;20410;55.578;12.968;2022-12-07T09:25:47;18.03;;;14.70;;
34134;SDS011;20410;55.578;12.968;2022-12-07T09:28:13;21.43;;;14.60;;
34134;SDS011;20410;55.578;12.968;2022-12-07T09:30:39;20.23;;;14.13;;
34134;SDS011;20410;55.578;12.968;2022-12-07T09:33:09;17.90;;;12.93;;
34134;SDS011;20410;55.578;12.968;2022-12-07T09:35:35;16.80;;;12.47;;
34134;SDS011;20410;55.578;12.968;2022-12-07T09:38:00;13.67;;;10.93;;
34134;SDS011;20410;55.578;12.968;2022-12-07T09:40:27;16.93;;;12.33;;
34134;SDS011;20410;55.578;12.968;2022-12-07T09:42:53;12.43;;;10.77;;
34134;SDS011;20410;55.578;12.968;2022-12-07T09:47:48;14.20;;;11.90;;
34134;SDS011;20410;55.578;12.968;2022-12-07T09:50:16;14.87;;;12.80;;
34134;SDS011;20410;55.578;12.968;2022-12-07T09:52:50;14.77;;;11.13;;
34134;SDS011;20410;55.578;12.968;2022-12-07T09:55:24;16.13;;;11.17;;
34134;SDS011;20410;55.578;12.968;2022-12-07T09:57:53;15.67;;;11.50;;
34134;SDS011;20410;55.578;12.968;2022-12-07T10:00:21;13.70;;;10.60;;
34134;SDS011;20410;55.578;12.968;2022-12-07T10:02:55;16.83;;;11.17;;
34134;SDS011;20410;55.578;12.968;2022-12-07T10:05:27;13.37;;;10.17;;
34134;SDS011;20410;55.578;12.968;2022-12-07T10:07:56;13.67;;;10.33;;
34134;SDS011;20410;55.578;12.968;2022-12-07T10:10:29;11.37;;;9.33;;
34134;SDS011;20410;55.578;12.968;2022-12-07T10:13:04;11.23;;;9.83;;
34134;SDS011;20410;55.578;12.968;2022-12-07T10:15:42;12.13;;;9.60;;
34134;SDS011;20410;55.578;12.968;2022-12-07T10:18:18;15.30;;;10.57;;
34134;SDS011;20410;55.578;12.968;2022-12-07T10:21:00;10.73;;;8.30;;
34134;SDS011;20410;55.578;12.968;2022-12-07T10:23:26;11.63;;;8.43;;
34134;SDS011;20410;55.578;12.968;2022-12-07T10:25:51;12.33;;;8.73;;
34134;SDS011;20410;55.578;12.968;2022-12-07T10:28:19;11.87;;;8.40;;
34134;SDS011;20410;55.578;12.968;2022-12-07T10:30:50;10.70;;;8.43;;
34134;SDS011;20410;55.578;12.968;2022-12-07T10:33:29;10.10;;;8.57;;
34134;SDS011;20410;55.578;12.968;2022-12-07T10:36:00;10.30;;;7.93;;
34134;SDS011;20410;55.578;12.968;2022-12-07T10:38:43;11.13;;;7.70;;
34134;SDS011;20410;55.578;12.968;2022-12-07T10:41:13;12.13;;;9.73;;
34134;SDS011;20410;55.578;12.968;2022-12-07T10:43:46;11.67;;;8.90;;
34134;SDS011;20410;55.578;12.968;2022-12-07T10:52:16;12.53;;;8.20;;
34134;SDS011;20410;55.578;12.968;2022-12-07T10:57:34;14.40;;;8.77;;
34134;SDS011;20410;55.578;12.968;2022-12-07T11:00:18;13.80;;;8.53;;
34134;SDS011;20410;55.578;12.968;2022-12-07T11:03:18;11.07;;;8.17;;
34134;SDS011;20410;55.578;12.968;2022-12-07T11:22:01;9.37;;;8.30;;
34134;SDS011;20410;55.578;12.968;2022-12-07T11:24:47;12.23;;;8.80;;
34134;SDS011;20410;55.578;12.968;2022-12-07T11:27:39;12.03;;;9.43;;
34134;SDS011;20410;55.578;12.968;2022-12-07T11:30:13;11.40;;;7.83;;
34134;SDS011;20410;55.578;12.968;2022-12-07T11:32:50;11.00;;;7.53;;
34134;SDS011;20410;55.578;12.968;2022-12-07T11:35:31;12.50;;;8.50;;
34134;SDS011;20410;55.578;12.968;2022-12-07T11:38:16;12.50;;;8.47;;
34134;SDS011;20410;55.578;12.968;2022-12-07T11:40:45;13.20;;;8.30;;
34134;SDS011;20410;55.578;12.968;2022-12-07T11:43:21;10.53;;;8.33;;
34134;SDS011;20410;55.578;12.968;2022-12-07T11:45:59;11.67;;;8.23;;
34134;SDS011;20410;55.578;12.968;2022-12-07T11:48:42;14.47;;;9.10;;
34134;SDS011;20410;55.578;12.968;2022-12-07T11:51:12;11.20;;;8.30;;
34134;SDS011;20410;55.578;12.968;2022-12-07T11:53:59;11.13;;;8.07;;
34134;SDS011;20410;55.578;12.968;2022-12-07T11:56:30;10.67;;;8.53;;
34134;SDS011;20410;55.578;12.968;2022-12-07T11:59:17;11.13;;;8.17;;
34134;SDS011;20410;55.578;12.968;2022-12-07T12:02:12;12.17;;;8.07;;
34134;SDS011;20410;55.578;12.968;2022-12-07T12:04:56;12.37;;;8.47;;
34134;SDS011;20410;55.578;12.968;2022-12-07T12:07:30;12.43;;;8.57;;
34134;SDS011;20410;55.578;12.968;2022-12-07T12:09:58;11.43;;;8.00;;
34134;SDS011;20410;55.578;12.968;2022-12-07T12:12:43;11.63;;;8.77;;
34134;SDS011;20410;55.578;12.968;2022-12-07T12:23:44;11.73;;;9.00;;
34134;SDS011;20410;55.578;12.968;2022-12-07T12:26:17;11.60;;;8.67;;
34134;SDS011;20410;55.578;12.968;2022-12-07T12:33:56;15.70;;;11.87;;
34134;SDS011;20410;55.578;12.968;2022-12-07T12:36:25;46.33;;;28.07;;
34134;SDS011;20410;55.578;12.968;2022-12-07T12:39:10;16.30;;;10.10;;
34134;SDS011;20410;55.578;12.968;2022-12-07T12:51:57;19.57;;;12.07;;
34134;SDS011;20410;55.578;12.968;2022-12-07T12:54:27;16.73;;;12.87;;
34134;SDS011;20410;55.578;12.968;2022-12-07T12:56:59;16.77;;;12.57;;
34134;SDS011;20410;55.578;12.968;2022-12-07T12:59:37;17.50;;;12.83;;
34134;SDS011;20410;55.578;12.968;2022-12-07T13:02:37;16.80;;;11.13;;
34134;SDS011;20410;55.578;12.968;2022-12-07T13:18:34;13.93;;;9.93;;
34134;SDS011;20410;55.578;12.968;2022-12-07T13:31:35;12.77;;;7.97;;
34134;SDS011;20410;55.578;12.968;2022-12-07T13:36:55;10.40;;;7.70;;
34134;SDS011;20410;55.578;12.968;2022-12-07T13:39:23;11.50;;;8.40;;
34134;SDS011;20410;55.578;12.968;2022-12-07T13:44:21;11.87;;;7.80;;
34134;SDS011;20410;55.578;12.968;2022-12-07T13:49:46;8.30;;;6.97;;
34134;SDS011;20410;55.578;12.968;2022-12-07T13:54:49;10.23;;;6.93;;
34134;SDS011;20410;55.578;12.968;2022-12-07T13:57:21;7.60;;;6.67;;
34134;SDS011;20410;55.578;12.968;2022-12-07T13:59:48;8.87;;;6.43;;
34134;SDS011;20410;55.578;12.968;2022-12-07T14:02:33;11.80;;;7.87;;
34134;SDS011;20410;55.578;12.968;2022-12-07T14:12:57;9.63;;;6.50;;
34134;SDS011;20410;55.578;12.968;2022-12-07T14:15:25;10.27;;;7.17;;
34134;SDS011;20410;55.578;12.968;2022-12-07T14:17:54;9.10;;;6.57;;
34134;SDS011;20410;55.578;12.968;2022-12-07T14:20:28;8.40;;;6.30;;
34134;SDS011;20410;55.578;12.968;2022-12-07T14:22:58;8.07;;;7.10;;
34134;SDS011;20410;55.578;12.968;2022-12-07T14:25:24;8.90;;;6.93;;
34134;SDS011;20410;55.578;12.968;2022-12-07T14:30:25;10.97;;;7.60;;
34134;SDS011;20410;55.578;12.968;2022-12-07T14:32:54;8.57;;;7.00;;
34134;SDS011;20410;55.578;12.968;2022-12-07T14:35:22;8.93;;;7.43;;
34134;SDS011;20410;55.578;12.968;2022-12-07T14:37:48;8.40;;;6.70;;
34134;SDS011;20410;55.578;12.968;2022-12-07T14:40:20;7.27;;;6.17;;
34134;SDS011;20410;55.578;12.968;2022-12-07T14:42:53;7.97;;;6.57;;
34134;SDS011;20410;55.578;12.968;2022-12-07T14:45:22;6.77;;;6.07;;
34134;SDS011;20410;55.578;12.968;2022-12-07T14:47:48;7.60;;;5.80;;
34134;SDS011;20410;55.578;12.968;2022-12-07T14:50:15;8.40;;;6.40;;
34134;SDS011;20410;55.578;12.968;2022-12-07T14:52:43;7.87;;;6.47;;
34134;SDS011;20410;55.578;12.968;2022-12-07T14:55:30;5.83;;;4.97;;
34134;SDS011;20410;55.578;12.968;2022-12-07T14:57:57;4.70;;;4.17;;
34134;SDS011;20410;55.578;12.968;2022-12-07T15:00:24;6.20;;;4.43;;
34134;SDS011;20410;55.578;12.968;2022-12-07T15:02:51;4.47;;;4.07;;
34134;SDS011;20410;55.578;12.968;2022-12-07T15:05:18;4.40;;;3.83;;
34134;SDS011;20410;55.578;12.968;2022-12-07T15:07:44;6.40;;;3.47;;
34134;SDS011;20410;55.578;12.968;2022-12-07T15:12:45;3.73;;;3.43;;
34134;SDS011;20410;55.578;12.968;2022-12-07T15:15:11;3.70;;;3.30;;
34134;SDS011;20410;55.578;12.968;2022-12-07T15:17:38;3.73;;;3.43;;
34134;SDS011;20410;55.578;12.968;2022-12-07T15:20:04;3.67;;;3.37;;
34134;SDS011;20410;55.578;12.968;2022-12-07T15:22:30;3.50;;;3.20;;
34134;SDS011;20410;55.578;12.968;2022-12-07T15:24:56;3.93;;;3.47;;
34134;SDS011;20410;55.578;12.968;2022-12-07T15:27:22;4.77;;;3.33;;
34134;SDS011;20410;55.578;12.968;2022-12-07T15:29:48;3.80;;;3.50;;
34134;SDS011;20410;55.578;12.968;2022-12-07T15:32:14;4.03;;;3.63;;
34134;SDS011;20410;55.578;12.968;2022-12-07T15:34:39;4.53;;;4.13;;
34134;SDS011;20410;55.578;12.968;2022-12-07T15:37:05;5.27;;;4.63;;
34134;SDS011;20410;55.578;12.968;2022-12-07T15:39:31;4.00;;;3.70;;
34134;SDS011;20410;55.578;12.968;2022-12-07T15:41:57;4.30;;;3.90;;
34134;SDS011;20410;55.578;12.968;2022-12-07T15:44:23;23.93;;;14.07;;
34134;SDS011;20410;55.578;12.968;2022-12-07T15:47:07;4.60;;;4.20;;
34134;SDS011;20410;55.578;12.968;2022-12-07T15:49:32;4.83;;;4.43;;
34134;SDS011;20410;55.578;12.968;2022-12-07T15:51:58;4.00;;;3.27;;
34134;SDS011;20410;55.578;12.968;2022-12-07T15:54:24;5.10;;;4.60;;
34134;SDS011;20410;55.578;12.968;2022-12-07T15:56:51;5.47;;;4.60;;
34134;SDS011;20410;55.578;12.968;2022-12-07T15:59:18;4.47;;;4.13;;
34134;SDS011;20410;55.578;12.968;2022-12-07T16:01:43;5.50;;;4.43;;
34134;SDS011;20410;55.578;12.968;2022-12-07T16:04:09;4.67;;;3.93;;
34134;SDS011;20410;55.578;12.968;2022-12-07T16:06:35;4.63;;;4.23;;
34134;SDS011;20410;55.578;12.968;2022-12-07T16:09:01;5.37;;;4.80;;
34134;SDS011;20410;55.578;12.968;2022-12-07T16:11:27;4.87;;;4.33;;
34134;SDS011;20410;55.578;12.968;2022-12-07T16:13:53;6.13;;;3.97;;
34134;SDS011;20410;55.578;12.968;2022-12-07T16:16:19;5.13;;;4.47;;
34134;SDS011;20410;55.578;12.968;2022-12-07T16:18:47;4.13;;;3.73;;
34134;SDS011;20410;55.578;12.968;2022-12-07T16:21:13;3.63;;;3.33;;
34134;SDS011;20410;55.578;12.968;2022-12-07T16:23:39;3.30;;;3.00;;
34134;SDS011;20410;55.578;12.968;2022-12-07T16:28:32;4.00;;;3.57;;
34134;SDS011;20410;55.578;12.968;2022-12-07T16:31:04;5.33;;;4.83;;
34134;SDS011;20410;55.578;12.968;2022-12-07T16:33:32;3.67;;;3.37;;
34134;SDS011;20410;55.578;12.968;2022-12-07T16:36:01;4.30;;;3.40;;
34134;SDS011;20410;55.578;12.968;2022-12-07T16:38:28;3.47;;;3.17;;
34134;SDS011;20410;55.578;12.968;2022-12-07T16:40:54;4.20;;;3.10;;
34134;SDS011;20410;55.578;12.968;2022-12-07T16:43:20;5.20;;;3.33;;
34134;SDS011;20410;55.578;12.968;2022-12-07T16:45:46;4.80;;;4.27;;
34134;SDS011;20410;55.578;12.968;2022-12-07T16:48:12;3.67;;;3.37;;
34134;SDS011;20410;55.578;12.968;2022-12-07T16:50:39;3.93;;;3.30;;
34134;SDS011;20410;55.578;12.968;2022-12-07T16:53:06;4.47;;;3.63;;
34134;SDS011;20410;55.578;12.968;2022-12-07T16:55:35;6.17;;;3.67;;
34134;SDS011;20410;55.578;12.968;2022-12-07T16:58:02;3.40;;;3.10;;
34134;SDS011;20410;55.578;12.968;2022-12-07T17:00:27;4.37;;;3.20;;